createdAt,value
2023-01-30T00:01:53.846Z,101903.03
2023-01-30T00:04:20.617Z,101912.00
2023-01-30T00:06:47.613Z,101915.66
2023-01-30T00:09:15.771Z,101913.16
2023-01-30T00:11:42.760Z,101904.41
2023-01-30T00:14:09.545Z,101915.38
2023-01-30T00:16:36.359Z,101917.06
2023-01-30T00:19:03.293Z,101904.97
2023-01-30T00:21:30.136Z,101904.13
2023-01-30T00:23:56.927Z,101897.66
2023-01-30T00:26:23.651Z,101901.03
2023-01-30T00:28:50.434Z,101897.38
2023-01-30T00:31:17.581Z,101906.94
2023-01-30T00:33:44.359Z,101904.72
2023-01-30T00:36:11.474Z,101896.81
2023-01-30T00:38:38.240Z,101886.69
2023-01-30T00:41:05.358Z,101890.91
2023-01-30T00:43:41.466Z,101901.91
2023-01-30T00:46:25.218Z,101887.84
2023-01-30T00:48:51.890Z,101895.72
2023-01-30T00:51:18.594Z,101895.72
2023-01-30T00:53:45.508Z,101896.34
2023-01-30T00:56:12.218Z,101893.28
2023-01-30T00:58:38.958Z,101887.34
2023-01-30T01:01:05.673Z,101887.09
2023-01-30T01:03:32.351Z,101886.53
2023-01-30T01:05:59.002Z,101887.13
2023-01-30T01:08:25.964Z,101877.31
2023-01-30T01:10:52.677Z,101872.25
2023-01-30T01:13:19.327Z,101865.78
2023-01-30T01:15:46.051Z,101858.22
2023-01-30T01:18:12.924Z,101853.22
2023-01-30T01:20:39.577Z,101853.22
2023-01-30T01:23:06.423Z,101853.81
2023-01-30T01:25:33.123Z,101859.72
2023-01-30T01:28:00.021Z,101851.88
2023-01-30T01:30:26.804Z,101853.84
2023-01-30T01:32:53.449Z,101858.66
2023-01-30T01:35:20.372Z,101851.06
2023-01-30T01:37:47.305Z,101837.88
2023-01-30T01:40:27.586Z,101834.22
2023-01-30T01:42:54.250Z,101832.84
2023-01-30T01:45:22.683Z,101823.84
2023-01-30T01:47:57.874Z,101818.84
2023-01-30T01:50:27.327Z,101811.53
2023-01-30T01:52:56.968Z,101809.59
2023-01-30T01:55:25.015Z,101820.28
2023-01-30T01:57:55.094Z,101828.19
2023-01-30T02:00:22.282Z,101811.91
2023-01-30T02:02:59.714Z,101821.75
2023-01-30T02:05:30.981Z,101824.84
2023-01-30T02:08:03.298Z,101820.94
2023-01-30T02:10:37.207Z,101821.22
2023-01-30T02:13:03.896Z,101827.97
2023-01-30T02:15:30.979Z,101823.47
2023-01-30T02:17:57.644Z,101832.47
2023-01-30T02:20:34.178Z,101821.00
2023-01-30T02:23:02.339Z,101813.13
2023-01-30T02:25:38.634Z,101820.47
2023-01-30T02:28:14.763Z,101825.53
2023-01-30T02:31:01.379Z,101825.56
2023-01-30T02:33:40.127Z,101830.34
2023-01-30T02:36:17.372Z,101819.38
2023-01-30T02:38:53.758Z,101832.91
2023-01-30T02:41:30.616Z,101828.41
2023-01-30T02:43:57.710Z,101830.13
2023-01-30T02:46:30.603Z,101820.00
2023-01-30T02:49:00.305Z,101837.44
2023-01-30T02:51:30.169Z,101830.41
2023-01-30T02:53:56.870Z,101840.81
2023-01-30T02:56:23.593Z,101842.75
2023-01-30T02:58:52.804Z,101851.50
2023-01-30T03:01:33.286Z,101853.75
2023-01-30T03:04:27.908Z,101855.44
2023-01-30T03:06:54.800Z,101860.22
2023-01-30T03:09:37.178Z,101848.72
2023-01-30T03:12:13.727Z,101853.78
2023-01-30T03:14:46.353Z,101854.09
2023-01-30T03:17:14.513Z,101852.13
2023-01-30T03:19:41.943Z,101857.75
2023-01-30T03:22:09.073Z,101861.09
2023-01-30T03:24:36.337Z,101858.03
2023-01-30T03:27:05.961Z,101871.81
2023-01-30T03:29:33.008Z,101876.84
2023-01-30T03:31:59.743Z,101876.84
2023-01-30T03:34:26.511Z,101862.81
2023-01-30T03:36:53.278Z,101860.59
2023-01-30T03:39:19.948Z,101867.03
2023-01-30T03:41:47.374Z,101861.69
2023-01-30T03:44:14.492Z,101868.75
2023-01-30T03:46:41.208Z,101867.06
2023-01-30T03:49:08.072Z,101872.41
2023-01-30T03:51:34.754Z,101865.69
2023-01-30T03:54:01.560Z,101867.91
2023-01-30T03:56:28.228Z,101866.22
2023-01-30T03:58:54.908Z,101860.91
2023-01-30T04:01:22.088Z,101861.16
2023-01-30T04:03:49.042Z,101859.47
2023-01-30T04:06:16.080Z,101865.34
2023-01-30T04:08:42.758Z,101862.00
2023-01-30T04:11:09.439Z,101865.66
2023-01-30T04:13:36.134Z,101864.56
2023-01-30T04:16:19.664Z,101870.16
2023-01-30T04:18:46.675Z,101866.50
2023-01-30T04:21:13.724Z,101878.59
2023-01-30T04:23:40.575Z,101874.66
2023-01-30T04:26:08.072Z,101877.75
2023-01-30T04:28:34.975Z,101874.38
2023-01-30T04:31:01.647Z,101876.31
2023-01-30T04:33:28.362Z,101876.31
2023-01-30T04:35:56.013Z,101870.19
2023-01-30T04:38:23.696Z,101867.63
2023-01-30T04:40:52.465Z,101887.84
2023-01-30T04:43:19.693Z,101896.28
2023-01-30T04:45:46.915Z,101892.06
2023-01-30T04:48:13.707Z,101903.28
2023-01-30T04:50:41.318Z,101905.53
2023-01-30T04:53:08.294Z,101909.19
2023-01-30T04:55:35.058Z,101917.31
2023-01-30T04:58:01.866Z,101919.84
2023-01-30T05:00:28.982Z,101934.44
2023-01-30T05:02:56.629Z,101926.84
2023-01-30T05:05:23.994Z,101936.66
2023-01-30T05:07:51.287Z,101932.19
2023-01-30T05:10:18.117Z,101933.84
2023-01-30T05:12:44.943Z,101938.06
2023-01-30T05:15:12.372Z,101932.72
2023-01-30T05:17:40.007Z,101928.25
2023-01-30T05:20:08.215Z,101931.88
2023-01-30T05:22:34.945Z,101934.16
2023-01-30T05:25:01.747Z,101929.09
2023-01-30T05:27:28.441Z,101922.63
2023-01-30T05:29:55.094Z,101927.41
2023-01-30T05:32:21.993Z,101941.72
2023-01-30T05:34:49.758Z,101933.03
2023-01-30T05:37:16.478Z,101945.38
2023-01-30T05:39:43.283Z,101954.03
2023-01-30T05:42:10.020Z,101958.81
2023-01-30T05:44:36.997Z,101956.31
2023-01-30T05:47:03.885Z,101958.25
2023-01-30T05:49:30.623Z,101956.00
2023-01-30T05:51:57.513Z,101962.47
2023-01-30T05:54:24.225Z,101956.00
2023-01-30T05:56:51.078Z,101952.09
2023-01-30T05:59:18.908Z,101956.31
2023-01-30T06:01:45.653Z,101955.75
2023-01-30T06:04:12.468Z,101963.59
2023-01-30T06:06:39.139Z,101964.16
2023-01-30T06:09:05.809Z,101965.28
2023-01-30T06:11:32.708Z,101984.09
2023-01-30T06:13:59.662Z,101990.25
2023-01-30T06:16:27.431Z,101980.97
2023-01-30T06:18:54.261Z,101977.63
2023-01-30T06:21:21.006Z,101983.78
2023-01-30T06:23:48.083Z,101987.47
2023-01-30T06:26:15.026Z,101985.53
2023-01-30T06:28:42.478Z,101982.41
2023-01-30T06:31:09.566Z,101989.13
2023-01-30T06:33:36.569Z,101997.56
2023-01-30T06:36:03.451Z,102005.97
2023-01-30T06:38:30.399Z,102014.13
2023-01-30T06:40:57.289Z,102011.84
2023-01-30T06:43:24.428Z,102016.59
2023-01-30T06:45:51.274Z,102012.66
2023-01-30T06:48:17.997Z,102019.41
2023-01-30T06:50:46.836Z,102025.81
2023-01-30T06:53:13.613Z,102035.09
2023-01-30T06:55:41.410Z,102039.31
2023-01-30T06:58:09.598Z,102040.13
2023-01-30T07:00:36.870Z,102045.75
2023-01-30T07:03:03.593Z,102047.72
2023-01-30T07:05:30.483Z,102057.25
2023-01-30T07:07:57.285Z,102058.66
2023-01-30T07:10:26.455Z,102072.69
2023-01-30T07:12:53.884Z,102077.75
2023-01-30T07:15:21.722Z,102078.00
2023-01-30T07:17:48.999Z,102083.91
2023-01-30T07:20:16.176Z,102103.03
2023-01-30T07:22:43.715Z,102101.06
2023-01-30T07:25:10.683Z,102106.69
2023-01-30T07:27:38.307Z,102115.97
2023-01-30T07:30:05.484Z,102121.38
2023-01-30T07:32:32.199Z,102127.50
2023-01-30T07:35:00.027Z,102136.25
2023-01-30T07:37:26.867Z,102121.63
2023-01-30T07:39:54.124Z,102134.56
2023-01-30T07:42:21.125Z,102140.44
2023-01-30T07:44:47.963Z,102148.03
2023-01-30T07:47:16.379Z,102150.00
2023-01-30T07:49:43.629Z,102144.97
2023-01-30T07:52:11.189Z,102147.50
2023-01-30T07:54:38.125Z,102149.47
2023-01-30T07:57:05.021Z,102151.44
2023-01-30T07:59:32.240Z,102165.19
2023-01-30T08:01:59.230Z,102160.94
2023-01-30T08:04:26.101Z,102155.63
2023-01-30T08:06:53.344Z,102163.22
2023-01-30T08:09:20.239Z,102155.63
2023-01-30T08:11:47.142Z,102148.06
2023-01-30T08:14:14.069Z,102137.38
2023-01-30T08:16:41.925Z,102137.38
2023-01-30T08:19:09.389Z,102124.72
2023-01-30T08:21:37.050Z,102134.84
2023-01-30T08:24:04.513Z,102140.19
2023-01-30T08:26:32.429Z,102151.97
2023-01-30T08:29:02.893Z,102142.44
2023-01-30T08:31:29.819Z,102153.41
2023-01-30T08:33:57.361Z,102159.56
2023-01-30T08:36:24.421Z,102166.88
2023-01-30T08:38:51.396Z,102172.50
2023-01-30T08:41:18.305Z,102168.84
2023-01-30T08:43:45.150Z,102164.91
2023-01-30T08:46:11.980Z,102175.59
2023-01-30T08:48:49.639Z,102179.53
2023-01-30T08:51:17.420Z,102169.41
2023-01-30T08:53:44.381Z,102174.75
2023-01-30T08:56:11.462Z,102185.13
2023-01-30T08:58:38.850Z,102197.50
2023-01-30T09:01:07.431Z,102193.56
2023-01-30T09:03:34.922Z,102189.06
2023-01-30T09:06:01.820Z,102190.78
2023-01-30T09:08:28.840Z,102199.75
2023-01-30T09:10:59.714Z,102218.88
2023-01-30T09:13:26.949Z,102212.09
2023-01-30T09:15:54.055Z,102229.81
2023-01-30T09:18:21.093Z,102220.53
2023-01-30T09:20:52.736Z,102227.56
2023-01-30T09:23:20.684Z,102209.03
2023-01-30T09:25:47.610Z,102210.72
2023-01-30T09:28:14.829Z,102207.06
2023-01-30T09:30:47.183Z,102200.00
2023-01-30T09:33:16.752Z,102201.72
2023-01-30T09:35:43.635Z,102214.38
2023-01-30T09:38:10.716Z,102211.25
2023-01-30T09:40:44.246Z,102206.78
2023-01-30T09:43:14.271Z,102210.44
2023-01-30T09:45:44.961Z,102209.59
2023-01-30T09:48:13.249Z,102215.75
2023-01-30T09:50:48.018Z,102216.34
2023-01-30T09:53:20.949Z,102223.34
2023-01-30T09:55:48.529Z,102239.38
2023-01-30T09:58:19.528Z,102238.22
2023-01-30T10:00:48.472Z,102240.22
2023-01-30T10:03:17.462Z,102241.88
2023-01-30T10:05:47.534Z,102237.66
2023-01-30T10:08:16.131Z,102241.88
2023-01-30T10:10:46.054Z,102243.84
2023-01-30T10:13:14.223Z,102244.69
2023-01-30T10:15:47.679Z,102243.00
2023-01-30T10:18:16.008Z,102249.16
2023-01-30T10:20:50.381Z,102247.78
2023-01-30T10:23:17.770Z,102255.09
2023-01-30T10:25:47.012Z,102268.28
2023-01-30T10:28:17.490Z,102273.91
2023-01-30T10:30:46.770Z,102263.22
2023-01-30T10:33:16.690Z,102260.09
2023-01-30T10:35:46.042Z,102258.44
2023-01-30T10:38:13.348Z,102254.22
2023-01-30T10:40:42.663Z,102257.84
2023-01-30T10:43:12.612Z,102253.34
2023-01-30T10:45:45.769Z,102259.25
2023-01-30T10:48:16.163Z,102261.50
2023-01-30T10:50:47.083Z,102254.47
2023-01-30T10:53:17.386Z,102255.84
2023-01-30T10:55:47.927Z,102249.69
2023-01-30T10:58:18.369Z,102264.28
2023-01-30T11:00:47.248Z,102262.06
2023-01-30T11:03:17.385Z,102278.91
2023-01-30T11:05:47.324Z,102282.22
2023-01-30T11:08:17.298Z,102284.22
2023-01-30T11:10:44.204Z,102260.34
2023-01-30T11:13:15.128Z,102263.72
2023-01-30T11:15:42.658Z,102259.78
2023-01-30T11:18:41.379Z,102271.56
2023-01-30T11:21:01.892Z,102270.16
2023-01-30T11:23:33.670Z,102273.81
2023-01-30T11:26:11.030Z,102274.09
2023-01-30T11:28:41.851Z,102279.41
2023-01-30T11:31:13.310Z,102265.66
2023-01-30T11:33:42.373Z,102271.00
2023-01-30T11:36:24.727Z,102278.84
2023-01-30T11:38:57.468Z,102284.16
2023-01-30T11:41:24.961Z,102274.03
2023-01-30T11:43:52.247Z,102275.09
2023-01-30T11:46:20.772Z,102276.53
2023-01-30T11:49:11.096Z,102270.63
2023-01-30T11:51:38.768Z,102273.13
2023-01-30T11:54:08.072Z,102272.00
2023-01-30T11:56:39.581Z,102277.06
2023-01-30T11:59:09.598Z,102270.31
2023-01-30T12:01:37.615Z,102276.47
2023-01-30T12:04:07.597Z,102262.72
2023-01-30T12:06:36.540Z,102263.56
2023-01-30T12:09:05.396Z,102263.03
2023-01-30T12:11:35.345Z,102256.84
2023-01-30T12:14:05.687Z,102257.09
2023-01-30T12:16:36.553Z,102258.50
2023-01-30T12:19:06.573Z,102262.97
2023-01-30T12:21:35.032Z,102263.81
2023-01-30T12:24:05.680Z,102273.09
2023-01-30T12:26:36.579Z,102284.56
2023-01-30T12:29:09.033Z,102289.09
2023-01-30T12:31:39.697Z,102296.66
2023-01-30T12:34:09.590Z,102301.97
2023-01-30T12:36:40.480Z,102304.19
2023-01-30T12:39:10.366Z,102279.78
2023-01-30T12:41:40.951Z,102274.72
2023-01-30T12:44:08.344Z,102272.19
2023-01-30T12:46:44.512Z,102275.25
2023-01-30T12:52:02.677Z,102262.63
2023-01-30T12:54:38.951Z,102276.94
2023-01-30T12:57:06.547Z,102291.25
2023-01-30T12:59:36.591Z,102290.13
2023-01-30T13:02:03.788Z,102289.28
2023-01-30T13:04:46.903Z,102282.28
2023-01-30T13:07:29.429Z,102280.03
2023-01-30T13:10:00.459Z,102290.41
2023-01-30T13:12:30.825Z,102281.97
2023-01-30T13:15:00.989Z,102275.22
2023-01-30T13:17:31.007Z,102273.00
2023-01-30T13:20:00.931Z,102258.41
2023-01-30T13:22:35.678Z,102263.44
2023-01-30T13:25:07.119Z,102256.72
2023-01-30T13:27:36.787Z,102251.63
2023-01-30T13:30:06.618Z,102250.78
2023-01-30T13:32:36.244Z,102243.56
2023-01-30T13:35:07.609Z,102248.31
2023-01-30T13:37:36.069Z,102256.41
2023-01-30T13:40:05.427Z,102256.69
2023-01-30T13:42:33.640Z,102267.63
2023-01-30T13:45:01.514Z,102268.19
2023-01-30T13:47:35.182Z,102266.47
2023-01-30T13:50:10.566Z,102269.28
2023-01-30T13:52:43.888Z,102269.28
2023-01-30T13:55:21.720Z,102269.28
2023-01-30T13:57:51.721Z,102267.34
2023-01-30T14:00:22.167Z,102257.81
2023-01-30T14:02:52.019Z,102267.34
2023-01-30T14:05:47.390Z,102273.81
2023-01-30T14:08:22.150Z,102263.19
2023-01-30T14:10:50.135Z,102266.28
2023-01-30T14:13:18.649Z,102265.19
2023-01-30T14:15:49.649Z,102258.72
2023-01-30T14:18:22.172Z,102251.69
2023-01-30T14:20:50.962Z,102255.38
2023-01-30T14:23:22.661Z,102254.56
2023-01-30T14:25:50.838Z,102246.16
2023-01-30T14:28:18.043Z,102251.81
2023-01-30T14:30:45.619Z,102253.78
2023-01-30T14:33:15.596Z,102272.34
2023-01-30T14:35:44.837Z,102283.34
2023-01-30T14:38:14.026Z,102285.06
2023-01-30T14:40:42.780Z,102295.16
2023-01-30T14:43:12.711Z,102292.38
2023-01-30T14:45:42.852Z,102306.16
2023-01-30T14:48:13.149Z,102306.72
2023-01-30T14:50:40.647Z,102298.31
2023-01-30T14:53:15.109Z,102298.59
2023-01-30T14:55:42.547Z,102292.16
2023-01-30T14:58:15.488Z,102303.66
2023-01-30T15:00:42.924Z,102314.06
2023-01-30T15:03:17.173Z,102312.41
2023-01-30T15:05:47.010Z,102311.59
2023-01-30T15:08:17.287Z,102311.88
2023-01-30T15:10:47.433Z,102302.88
2023-01-30T15:13:17.543Z,102308.22
2023-01-30T15:15:52.534Z,102302.88
2023-01-30T15:18:21.014Z,102310.75
2023-01-30T15:20:59.193Z,102314.41
2023-01-30T15:23:28.409Z,102319.75
2023-01-30T15:26:04.120Z,102326.81
2023-01-30T15:28:38.089Z,102326.81
2023-01-30T15:31:07.430Z,102323.16
2023-01-30T15:33:34.328Z,102325.97
2023-01-30T15:36:18.111Z,102324.56
2023-01-30T15:38:45.741Z,102334.72
2023-01-30T15:41:12.723Z,102332.72
2023-01-30T15:43:42.807Z,102343.69
2023-01-30T15:46:14.874Z,102352.97
2023-01-30T15:48:46.237Z,102360.56
2023-01-30T15:51:16.917Z,102369.00
2023-01-30T15:53:46.010Z,102374.59
2023-01-30T15:56:18.349Z,102378.53
2023-01-30T15:58:45.801Z,102376.56
2023-01-30T16:01:17.543Z,102388.09
2023-01-30T16:03:44.652Z,102375.72
2023-01-30T16:06:14.707Z,102386.72
2023-01-30T16:08:42.365Z,102384.75
2023-01-30T16:11:10.892Z,102392.06
2023-01-30T16:13:40.092Z,102390.34
2023-01-30T16:16:13.146Z,102393.16
2023-01-30T16:18:41.936Z,102403.28
2023-01-30T16:21:11.134Z,102402.72
2023-01-30T16:23:42.200Z,102399.66
2023-01-30T16:26:14.681Z,102402.44
2023-01-30T16:28:42.098Z,102409.19
2023-01-30T16:31:10.421Z,102408.34
2023-01-30T16:33:39.355Z,102412.28
2023-01-30T16:36:26.674Z,102410.91
2023-01-30T16:38:54.907Z,102412.28
2023-01-30T16:41:25.089Z,102425.22
2023-01-30T16:44:08.158Z,102426.91
2023-01-30T16:46:39.709Z,102438.72
2023-01-30T16:49:07.096Z,102449.69
2023-01-30T16:51:34.651Z,102442.66
2023-01-30T16:54:04.050Z,102449.97
2023-01-30T16:56:33.848Z,102448.28
2023-01-30T16:59:02.182Z,102445.47
2023-01-30T17:01:32.863Z,102444.09
2023-01-30T17:04:02.473Z,102439.59
2023-01-30T17:06:31.217Z,102441.28
2023-01-30T17:08:59.199Z,102444.09
2023-01-30T17:11:29.786Z,102455.06
2023-01-30T17:14:00.157Z,102447.47
2023-01-30T17:16:28.566Z,102448.31
2023-01-30T17:18:58.778Z,102455.63
2023-01-30T17:21:28.754Z,102460.69
2023-01-30T17:23:58.470Z,102465.19
2023-01-30T17:26:25.508Z,102468.59
2023-01-30T17:28:54.631Z,102478.69
2023-01-30T17:31:23.324Z,102474.75
2023-01-30T17:33:50.352Z,102476.47
2023-01-30T17:36:23.783Z,102479.28
2023-01-30T17:38:51.778Z,102473.38
2023-01-30T17:41:21.044Z,102474.50
2023-01-30T17:43:49.778Z,102457.63
2023-01-30T17:46:18.099Z,102466.06
2023-01-30T17:48:45.968Z,102459.59
2023-01-30T17:51:14.715Z,102470.00
2023-01-30T17:53:43.372Z,102467.44
2023-01-30T17:56:13.732Z,102476.72
2023-01-30T17:58:40.789Z,102484.03
2023-01-30T18:01:07.800Z,102483.19
2023-01-30T18:03:36.320Z,102484.00
2023-01-30T18:06:03.583Z,102484.31
2023-01-30T18:08:30.547Z,102487.97
2023-01-30T18:10:57.660Z,102491.31
2023-01-30T18:13:25.712Z,102496.66
2023-01-30T18:15:55.702Z,102500.31
2023-01-30T18:18:22.878Z,102500.31
2023-01-30T18:20:50.257Z,102504.22
2023-01-30T18:23:18.409Z,102509.00
2023-01-30T18:25:46.036Z,102507.59
2023-01-30T18:28:14.519Z,102507.31
2023-01-30T18:30:41.679Z,102511.50
2023-01-30T18:33:08.880Z,102509.81
2023-01-30T18:35:39.039Z,102504.75
2023-01-30T18:38:06.064Z,102498.84
2023-01-30T18:40:33.414Z,102501.31
2023-01-30T18:43:00.810Z,102503.81
2023-01-30T18:45:27.812Z,102509.16
2023-01-30T18:47:54.969Z,102504.63
2023-01-30T18:50:22.065Z,102503.78
2023-01-30T18:52:50.902Z,102518.94
2023-01-30T18:55:18.111Z,102518.09
2023-01-30T18:57:45.531Z,102510.75
2023-01-30T19:00:12.769Z,102518.88
2023-01-30T19:02:40.933Z,102511.88
2023-01-30T19:05:08.723Z,102505.91
2023-01-30T19:07:36.016Z,102516.31
2023-01-30T19:10:03.454Z,102525.00
2023-01-30T19:12:34.409Z,102515.16
2023-01-30T19:15:02.249Z,102525.25
2023-01-30T19:17:29.970Z,102529.69
2023-01-30T19:19:58.655Z,102529.69
2023-01-30T19:22:26.095Z,102518.41
2023-01-30T19:24:53.333Z,102518.69
2023-01-30T19:27:21.113Z,102513.91
2023-01-30T19:29:50.374Z,102506.56
2023-01-30T19:32:17.389Z,102512.97
2023-01-30T19:34:45.700Z,102513.81
2023-01-30T19:37:13.530Z,102524.16
2023-01-30T19:39:41.006Z,102523.88
2023-01-30T19:42:07.960Z,102529.16
2023-01-30T19:44:35.333Z,102542.59
2023-01-30T19:47:02.531Z,102539.22
2023-01-30T19:49:29.611Z,102537.53
2023-01-30T19:51:57.977Z,102538.06
2023-01-30T19:54:24.823Z,102543.03
2023-01-30T19:56:52.220Z,102538.53
2023-01-30T19:59:19.307Z,102530.66
2023-01-30T20:01:46.328Z,102538.78
2023-01-30T20:04:13.844Z,102537.91
2023-01-30T20:06:44.761Z,102542.13
2023-01-30T20:09:11.760Z,102540.94
2023-01-30T20:11:40.192Z,102532.50
2023-01-30T20:14:07.458Z,102543.97
2023-01-30T20:16:36.018Z,102548.97
2023-01-30T20:19:05.723Z,102540.84
2023-01-30T20:21:34.119Z,102528.72
2023-01-30T20:24:02.966Z,102530.94
2023-01-30T20:26:35.177Z,102529.53
2023-01-30T20:29:03.324Z,102535.31
2023-01-30T20:31:30.853Z,102534.47
2023-01-30T20:34:01.077Z,102538.41
2023-01-30T20:36:28.741Z,102531.66
2023-01-30T20:38:57.281Z,102535.81
2023-01-30T20:41:26.114Z,102526.25
2023-01-30T20:43:57.902Z,102531.84
2023-01-30T20:46:27.681Z,102532.38
2023-01-30T20:48:56.598Z,102534.28
2023-01-30T20:51:26.222Z,102532.56
2023-01-30T20:53:54.819Z,102530.31
2023-01-30T20:56:23.200Z,102526.13
2023-01-30T20:58:51.375Z,102523.16
2023-01-30T21:01:20.486Z,102519.78
2023-01-30T21:03:49.891Z,102519.19
2023-01-30T21:06:41.736Z,102513.00
2023-01-30T21:09:08.187Z,102519.47
2023-01-30T21:11:35.353Z,102521.94
2023-01-30T21:14:02.608Z,102509.63
2023-01-30T21:16:32.068Z,102510.16
2023-01-30T21:19:02.002Z,102500.03
2023-01-30T21:21:33.563Z,102510.94
2023-01-30T21:24:02.498Z,102513.50
2023-01-30T21:26:31.491Z,102513.50
2023-01-30T21:29:00.262Z,102512.63
2023-01-30T21:31:29.709Z,102514.00
2023-01-30T21:33:58.301Z,102520.19
2023-01-30T21:36:26.616Z,102536.16
2023-01-30T21:38:56.781Z,102533.88
2023-01-30T21:41:30.021Z,102516.22
2023-01-30T21:43:57.262Z,102514.19
2023-01-30T21:46:24.732Z,102508.84
2023-01-30T21:48:51.932Z,102506.91
2023-01-30T21:51:18.974Z,102507.44
2023-01-30T21:53:45.993Z,102503.19
2023-01-30T21:56:13.764Z,102509.63
2023-01-30T21:58:40.659Z,102511.59
2023-01-30T22:01:09.044Z,102509.94
2023-01-30T22:03:36.768Z,102505.78
2023-01-30T22:06:04.253Z,102514.53
2023-01-30T22:08:32.079Z,102511.19
2023-01-30T22:11:04.869Z,102508.38
2023-01-30T22:13:33.129Z,102511.25
2023-01-30T22:16:03.710Z,102524.47
2023-01-30T22:18:33.363Z,102515.81
2023-01-30T22:21:02.517Z,102513.59
2023-01-30T22:23:31.223Z,102518.41
2023-01-30T22:25:58.184Z,102517.66
2023-01-30T22:28:26.221Z,102530.38
2023-01-30T22:30:54.073Z,102522.84
2023-01-30T22:33:22.020Z,102530.19
2023-01-30T22:35:51.196Z,102530.00
2023-01-30T22:38:20.611Z,102524.97
2023-01-30T22:40:47.814Z,102525.63
2023-01-30T22:43:15.688Z,102522.00
2023-01-30T22:45:42.681Z,102528.50
2023-01-30T22:48:12.342Z,102531.63
2023-01-30T22:50:39.356Z,102533.38
2023-01-30T22:53:06.664Z,102527.78
2023-01-30T22:55:37.085Z,102523.34
2023-01-30T22:58:04.093Z,102522.28
2023-01-30T23:00:31.304Z,102514.75
2023-01-30T23:02:58.244Z,102517.63
2023-01-30T23:05:26.158Z,102514.59
2023-01-30T23:07:52.971Z,102508.47
2023-01-30T23:10:20.432Z,102516.91
2023-01-30T23:12:50.501Z,102521.69
2023-01-30T23:15:17.921Z,102497.31
2023-01-30T23:17:48.611Z,102490.63
2023-01-30T23:20:15.841Z,102493.75
2023-01-30T23:22:42.825Z,102495.47
2023-01-30T23:25:12.039Z,102480.59
2023-01-30T23:27:39.106Z,102467.72
2023-01-30T23:30:06.811Z,102482.63
2023-01-30T23:32:35.546Z,102481.81
2023-01-30T23:35:03.749Z,102469.75
2023-01-30T23:37:35.852Z,102463.31
2023-01-30T23:40:02.828Z,102469.22
2023-01-30T23:42:29.900Z,102465.59
2023-01-30T23:44:56.920Z,102460.25
2023-01-30T23:47:23.961Z,102439.16
2023-01-30T23:49:51.125Z,102437.53
2023-01-30T23:52:18.742Z,102437.84
2023-01-30T23:54:45.883Z,102433.63
2023-01-30T23:57:13.841Z,102433.09
2023-01-30T23:59:41.278Z,102434.75
